Terminal Aerodrome Forecast
Issued by NWS Jackson, MS

Home | Current Version | Previous Version | Text Only | Print | Product List | Glossary On
Versions: 1 2 3 4 5 6 7 8 9 10 11 12 13 14 15 16 17 18 19 20
375
FTUS44 KJAN 242320
TAFJAN
TAF
KJAN 242320Z 2500/2524 23007KT P6SM BKN040
     FM250100 23007KT P6SM VCTS BKN025CB
     FM250500 32010G20KT P6SM SCT030=

USA.gov is the U.S. government's official web portal to all federal, state and local government web resources and services.